sensor_id;sensor_type;location;lat;lon;timestamp;temperature;humidity
70269;DHT22;58514;48.398;-4.274;2023-02-23T00:01:22;5.10;99.90
70269;DHT22;58514;48.398;-4.274;2023-02-23T00:03:48;5.00;99.90
70269;DHT22;58514;48.398;-4.274;2023-02-23T00:06:15;5.00;99.90
70269;DHT22;58514;48.398;-4.274;2023-02-23T00:08:41;5.00;99.90
70269;DHT22;58514;48.398;-4.274;2023-02-23T00:11:08;5.00;99.90
70269;DHT22;58514;48.398;-4.274;2023-02-23T00:13:34;5.00;99.90
70269;DHT22;58514;48.398;-4.274;2023-02-23T00:16:21;5.00;99.90
70269;DHT22;58514;48.398;-4.274;2023-02-23T00:18:50;5.00;99.90
70269;DHT22;58514;48.398;-4.274;2023-02-23T00:23:47;5.00;99.90
70269;DHT22;58514;48.398;-4.274;2023-02-23T00:26:13;4.90;99.90
70269;DHT22;58514;48.398;-4.274;2023-02-23T00:28:40;4.90;99.90
70269;DHT22;58514;48.398;-4.274;2023-02-23T00:31:06;4.90;99.90
70269;DHT22;58514;48.398;-4.274;2023-02-23T00:33:32;4.90;99.90
70269;DHT22;58514;48.398;-4.274;2023-02-23T00:36:06;4.80;99.90
70269;DHT22;58514;48.398;-4.274;2023-02-23T00:38:33;4.90;99.90
70269;DHT22;58514;48.398;-4.274;2023-02-23T00:41:04;4.80;99.90
70269;DHT22;58514;48.398;-4.274;2023-02-23T00:43:34;4.90;99.90
70269;DHT22;58514;48.398;-4.274;2023-02-23T00:46:00;4.80;99.90
70269;DHT22;58514;48.398;-4.274;2023-02-23T00:48:30;4.80;99.90
70269;DHT22;58514;48.398;-4.274;2023-02-23T00:51:00;4.80;99.90
70269;DHT22;58514;48.398;-4.274;2023-02-23T00:53:26;4.80;99.90
70269;DHT22;58514;48.398;-4.274;2023-02-23T00:55:52;4.80;99.90
70269;DHT22;58514;48.398;-4.274;2023-02-23T00:58:18;4.80;99.90
70269;DHT22;58514;48.398;-4.274;2023-02-23T01:00:44;4.80;99.90
70269;DHT22;58514;48.398;-4.274;2023-02-23T01:03:09;4.80;99.90
70269;DHT22;58514;48.398;-4.274;2023-02-23T01:05:35;4.80;99.90
70269;DHT22;58514;48.398;-4.274;2023-02-23T01:08:00;4.70;99.90
70269;DHT22;58514;48.398;-4.274;2023-02-23T01:10:26;4.70;99.90
70269;DHT22;58514;48.398;-4.274;2023-02-23T01:12:51;4.70;99.90
70269;DHT22;58514;48.398;-4.274;2023-02-23T01:15:18;4.70;99.90
70269;DHT22;58514;48.398;-4.274;2023-02-23T01:17:44;4.70;99.90
70269;DHT22;58514;48.398;-4.274;2023-02-23T01:20:11;4.70;99.90
70269;DHT22;58514;48.398;-4.274;2023-02-23T01:22:46;4.70;99.90
70269;DHT22;58514;48.398;-4.274;2023-02-23T01:25:12;4.70;99.90
70269;DHT22;58514;48.398;-4.274;2023-02-23T01:27:39;4.70;99.90
70269;DHT22;58514;48.398;-4.274;2023-02-23T01:30:06;4.70;99.90
70269;DHT22;58514;48.398;-4.274;2023-02-23T01:32:33;4.70;99.90
70269;DHT22;58514;48.398;-4.274;2023-02-23T01:34:58;4.70;99.90
70269;DHT22;58514;48.398;-4.274;2023-02-23T01:37:24;4.70;99.90
70269;DHT22;58514;48.398;-4.274;2023-02-23T01:39:49;4.70;99.90
70269;DHT22;58514;48.398;-4.274;2023-02-23T01:42:15;4.70;99.90
70269;DHT22;58514;48.398;-4.274;2023-02-23T01:47:06;4.70;99.90
70269;DHT22;58514;48.398;-4.274;2023-02-23T01:49:32;4.70;99.90
70269;DHT22;58514;48.398;-4.274;2023-02-23T01:52:01;4.70;99.90
70269;DHT22;58514;48.398;-4.274;2023-02-23T01:54:29;4.70;99.90
70269;DHT22;58514;48.398;-4.274;2023-02-23T01:56:57;4.60;99.90
70269;DHT22;58514;48.398;-4.274;2023-02-23T01:59:25;4.60;99.90
70269;DHT22;58514;48.398;-4.274;2023-02-23T02:01:52;4.60;99.90
70269;DHT22;58514;48.398;-4.274;2023-02-23T02:04:18;4.60;99.90
70269;DHT22;58514;48.398;-4.274;2023-02-23T02:06:45;4.60;99.90
70269;DHT22;58514;48.398;-4.274;2023-02-23T02:09:14;4.60;99.90
70269;DHT22;58514;48.398;-4.274;2023-02-23T02:11:43;4.60;99.90
70269;DHT22;58514;48.398;-4.274;2023-02-23T02:19:18;4.50;99.90
70269;DHT22;58514;48.398;-4.274;2023-02-23T02:42:47;4.40;99.90
70269;DHT22;58514;48.398;-4.274;2023-02-23T02:45:24;4.40;99.90
70269;DHT22;58514;48.398;-4.274;2023-02-23T02:47:55;4.40;99.90
70269;DHT22;58514;48.398;-4.274;2023-02-23T02:52:58;4.40;99.90
70269;DHT22;58514;48.398;-4.274;2023-02-23T02:55:26;4.40;99.90
70269;DHT22;58514;48.398;-4.274;2023-02-23T02:57:54;4.40;99.90
70269;DHT22;58514;48.398;-4.274;2023-02-23T03:00:22;4.40;99.90
70269;DHT22;58514;48.398;-4.274;2023-02-23T03:03:25;4.40;99.90
70269;DHT22;58514;48.398;-4.274;2023-02-23T03:06:10;4.40;99.90
70269;DHT22;58514;48.398;-4.274;2023-02-23T03:15:18;4.30;99.90
70269;DHT22;58514;48.398;-4.274;2023-02-23T03:21:09;4.30;99.90
70269;DHT22;58514;48.398;-4.274;2023-02-23T03:26:51;4.20;99.90
70269;DHT22;58514;48.398;-4.274;2023-02-23T03:29:42;4.20;99.90
70269;DHT22;58514;48.398;-4.274;2023-02-23T03:40:51;4.10;99.90
70269;DHT22;58514;48.398;-4.274;2023-02-23T03:43:52;4.10;99.90
70269;DHT22;58514;48.398;-4.274;2023-02-23T03:46:37;4.20;99.90
70269;DHT22;58514;48.398;-4.274;2023-02-23T03:49:22;4.20;99.90
70269;DHT22;58514;48.398;-4.274;2023-02-23T03:52:09;4.20;99.90
70269;DHT22;58514;48.398;-4.274;2023-02-23T03:54:57;4.20;99.90
70269;DHT22;58514;48.398;-4.274;2023-02-23T03:57:42;4.20;99.90
70269;DHT22;58514;48.398;-4.274;2023-02-23T04:00:29;4.30;99.90
70269;DHT22;58514;48.398;-4.274;2023-02-23T04:03:14;4.30;99.90
70269;DHT22;58514;48.398;-4.274;2023-02-23T04:05:59;4.40;99.90
70269;DHT22;58514;48.398;-4.274;2023-02-23T04:08:43;4.40;99.90
70269;DHT22;58514;48.398;-4.274;2023-02-23T04:14:17;4.50;99.90
70269;DHT22;58514;48.398;-4.274;2023-02-23T04:16:43;4.60;99.90
70269;DHT22;58514;48.398;-4.274;2023-02-23T04:19:10;4.60;99.90
70269;DHT22;58514;48.398;-4.274;2023-02-23T04:21:35;4.70;99.90
70269;DHT22;58514;48.398;-4.274;2023-02-23T04:24:01;4.70;99.90
70269;DHT22;58514;48.398;-4.274;2023-02-23T04:26:26;4.80;99.90
70269;DHT22;58514;48.398;-4.274;2023-02-23T04:28:52;4.80;99.90
70269;DHT22;58514;48.398;-4.274;2023-02-23T04:31:18;4.80;99.90
70269;DHT22;58514;48.398;-4.274;2023-02-23T04:33:43;4.80;99.90
70269;DHT22;58514;48.398;-4.274;2023-02-23T04:36:09;4.80;99.90
70269;DHT22;58514;48.398;-4.274;2023-02-23T04:38:35;4.80;99.90
70269;DHT22;58514;48.398;-4.274;2023-02-23T04:41:00;4.80;99.90
70269;DHT22;58514;48.398;-4.274;2023-02-23T04:43:26;4.80;99.90
70269;DHT22;58514;48.398;-4.274;2023-02-23T04:45:51;4.80;99.90
70269;DHT22;58514;48.398;-4.274;2023-02-23T04:48:17;4.80;99.90
70269;DHT22;58514;48.398;-4.274;2023-02-23T04:50:43;4.80;99.90
70269;DHT22;58514;48.398;-4.274;2023-02-23T04:53:08;4.80;99.90
70269;DHT22;58514;48.398;-4.274;2023-02-23T04:55:34;4.70;99.90
70269;DHT22;58514;48.398;-4.274;2023-02-23T04:58:00;4.70;99.90
70269;DHT22;58514;48.398;-4.274;2023-02-23T05:00:26;4.70;99.90
70269;DHT22;58514;48.398;-4.274;2023-02-23T05:02:53;4.70;99.90
70269;DHT22;58514;48.398;-4.274;2023-02-23T05:05:19;4.60;99.90
70269;DHT22;58514;48.398;-4.274;2023-02-23T05:07:45;4.60;99.90
70269;DHT22;58514;48.398;-4.274;2023-02-23T05:10:11;4.50;99.90
70269;DHT22;58514;48.398;-4.274;2023-02-23T05:12:36;4.50;99.90
70269;DHT22;58514;48.398;-4.274;2023-02-23T05:15:02;4.50;99.90
70269;DHT22;58514;48.398;-4.274;2023-02-23T05:17:28;4.40;99.90
70269;DHT22;58514;48.398;-4.274;2023-02-23T05:19:53;4.40;99.90
70269;DHT22;58514;48.398;-4.274;2023-02-23T05:22:19;4.40;99.90
70269;DHT22;58514;48.398;-4.274;2023-02-23T05:24:44;4.40;99.90
70269;DHT22;58514;48.398;-4.274;2023-02-23T05:27:10;4.40;99.90
70269;DHT22;58514;48.398;-4.274;2023-02-23T05:29:38;4.40;99.90
70269;DHT22;58514;48.398;-4.274;2023-02-23T05:32:03;4.40;99.90
70269;DHT22;58514;48.398;-4.274;2023-02-23T05:34:29;4.30;99.90
70269;DHT22;58514;48.398;-4.274;2023-02-23T05:36:55;4.30;99.90
70269;DHT22;58514;48.398;-4.274;2023-02-23T05:39:20;4.30;99.90
70269;DHT22;58514;48.398;-4.274;2023-02-23T05:41:46;4.20;99.90
70269;DHT22;58514;48.398;-4.274;2023-02-23T05:44:12;4.20;99.90
70269;DHT22;58514;48.398;-4.274;2023-02-23T05:46:37;4.10;99.90
70269;DHT22;58514;48.398;-4.274;2023-02-23T05:49:03;4.00;99.90
70269;DHT22;58514;48.398;-4.274;2023-02-23T05:51:30;4.00;99.90
70269;DHT22;58514;48.398;-4.274;2023-02-23T05:53:56;3.90;99.90
70269;DHT22;58514;48.398;-4.274;2023-02-23T05:56:21;3.90;99.90
70269;DHT22;58514;48.398;-4.274;2023-02-23T05:58:47;3.90;99.90
70269;DHT22;58514;48.398;-4.274;2023-02-23T06:01:13;3.90;99.90
70269;DHT22;58514;48.398;-4.274;2023-02-23T06:03:39;3.90;99.90
70269;DHT22;58514;48.398;-4.274;2023-02-23T06:06:04;3.90;99.90
70269;DHT22;58514;48.398;-4.274;2023-02-23T06:08:30;3.90;99.90
70269;DHT22;58514;48.398;-4.274;2023-02-23T06:10:56;3.90;99.90
70269;DHT22;58514;48.398;-4.274;2023-02-23T06:13:21;3.80;99.90
70269;DHT22;58514;48.398;-4.274;2023-02-23T06:15:47;3.90;99.90
70269;DHT22;58514;48.398;-4.274;2023-02-23T06:18:13;3.90;99.90
70269;DHT22;58514;48.398;-4.274;2023-02-23T06:20:39;3.90;99.90
70269;DHT22;58514;48.398;-4.274;2023-02-23T06:23:05;3.80;99.90
70269;DHT22;58514;48.398;-4.274;2023-02-23T06:25:31;3.90;99.90
70269;DHT22;58514;48.398;-4.274;2023-02-23T06:27:57;3.80;99.90
70269;DHT22;58514;48.398;-4.274;2023-02-23T06:30:22;3.80;99.90
70269;DHT22;58514;48.398;-4.274;2023-02-23T06:32:48;3.80;99.90
70269;DHT22;58514;48.398;-4.274;2023-02-23T06:35:13;3.80;99.90
70269;DHT22;58514;48.398;-4.274;2023-02-23T06:37:39;3.90;99.90
70269;DHT22;58514;48.398;-4.274;2023-02-23T06:40:05;3.80;99.90
70269;DHT22;58514;48.398;-4.274;2023-02-23T06:42:31;3.80;99.90
70269;DHT22;58514;48.398;-4.274;2023-02-23T06:44:56;3.80;99.90
70269;DHT22;58514;48.398;-4.274;2023-02-23T06:47:22;3.90;99.90
70269;DHT22;58514;48.398;-4.274;2023-02-23T06:49:47;3.90;99.90
70269;DHT22;58514;48.398;-4.274;2023-02-23T06:52:13;3.90;99.90
70269;DHT22;58514;48.398;-4.274;2023-02-23T06:54:39;4.00;99.90
70269;DHT22;58514;48.398;-4.274;2023-02-23T06:57:06;4.00;99.90
70269;DHT22;58514;48.398;-4.274;2023-02-23T06:59:32;4.00;99.90
70269;DHT22;58514;48.398;-4.274;2023-02-23T07:01:57;4.10;99.90
70269;DHT22;58514;48.398;-4.274;2023-02-23T07:04:23;4.10;99.90
70269;DHT22;58514;48.398;-4.274;2023-02-23T07:06:50;4.10;99.90
70269;DHT22;58514;48.398;-4.274;2023-02-23T07:09:16;4.10;99.90
70269;DHT22;58514;48.398;-4.274;2023-02-23T07:11:41;4.10;99.90
70269;DHT22;58514;48.398;-4.274;2023-02-23T07:14:09;4.10;99.90
70269;DHT22;58514;48.398;-4.274;2023-02-23T07:16:35;4.10;99.90
70269;DHT22;58514;48.398;-4.274;2023-02-23T07:19:01;4.00;99.90
70269;DHT22;58514;48.398;-4.274;2023-02-23T07:21:28;4.00;99.90
70269;DHT22;58514;48.398;-4.274;2023-02-23T07:23:54;4.10;99.90
70269;DHT22;58514;48.398;-4.274;2023-02-23T07:26:19;4.10;99.90
70269;DHT22;58514;48.398;-4.274;2023-02-23T07:28:45;4.00;99.90
70269;DHT22;58514;48.398;-4.274;2023-02-23T07:31:10;4.00;99.90
70269;DHT22;58514;48.398;-4.274;2023-02-23T07:33:36;4.00;99.90
70269;DHT22;58514;48.398;-4.274;2023-02-23T07:36:01;4.10;99.90
70269;DHT22;58514;48.398;-4.274;2023-02-23T07:38:27;4.10;99.90
70269;DHT22;58514;48.398;-4.274;2023-02-23T07:40:53;4.10;99.90
70269;DHT22;58514;48.398;-4.274;2023-02-23T07:43:19;4.10;99.90
70269;DHT22;58514;48.398;-4.274;2023-02-23T07:45:48;4.20;99.90
70269;DHT22;58514;48.398;-4.274;2023-02-23T07:48:13;4.20;99.90
70269;DHT22;58514;48.398;-4.274;2023-02-23T07:50:39;4.20;99.90
70269;DHT22;58514;48.398;-4.274;2023-02-23T07:53:05;4.30;99.90
70269;DHT22;58514;48.398;-4.274;2023-02-23T07:55:30;4.30;99.90
70269;DHT22;58514;48.398;-4.274;2023-02-23T07:57:56;4.40;99.90
70269;DHT22;58514;48.398;-4.274;2023-02-23T08:00:22;4.40;99.90
70269;DHT22;58514;48.398;-4.274;2023-02-23T08:02:49;4.50;99.90
70269;DHT22;58514;48.398;-4.274;2023-02-23T08:05:15;4.60;99.90
70269;DHT22;58514;48.398;-4.274;2023-02-23T08:07:41;4.70;99.90
70269;DHT22;58514;48.398;-4.274;2023-02-23T08:10:06;4.70;99.90
70269;DHT22;58514;48.398;-4.274;2023-02-23T08:12:32;4.80;99.90
70269;DHT22;58514;48.398;-4.274;2023-02-23T08:14:58;4.90;99.90
70269;DHT22;58514;48.398;-4.274;2023-02-23T08:17:24;5.00;99.90
70269;DHT22;58514;48.398;-4.274;2023-02-23T08:19:49;5.00;99.90
70269;DHT22;58514;48.398;-4.274;2023-02-23T08:22:15;5.10;99.90
70269;DHT22;58514;48.398;-4.274;2023-02-23T08:24:41;5.20;99.90
70269;DHT22;58514;48.398;-4.274;2023-02-23T08:27:06;5.20;99.90
70269;DHT22;58514;48.398;-4.274;2023-02-23T08:29:32;5.30;99.90
70269;DHT22;58514;48.398;-4.274;2023-02-23T08:32:00;5.40;99.90
70269;DHT22;58514;48.398;-4.274;2023-02-23T08:34:26;5.40;99.90
70269;DHT22;58514;48.398;-4.274;2023-02-23T08:36:51;5.50;99.90
70269;DHT22;58514;48.398;-4.274;2023-02-23T08:39:18;5.60;99.90
70269;DHT22;58514;48.398;-4.274;2023-02-23T08:41:43;5.60;99.90
70269;DHT22;58514;48.398;-4.274;2023-02-23T08:44:09;5.70;99.90
70269;DHT22;58514;48.398;-4.274;2023-02-23T08:46:34;5.70;99.90
70269;DHT22;58514;48.398;-4.274;2023-02-23T08:49:00;5.70;99.90
70269;DHT22;58514;48.398;-4.274;2023-02-23T08:51:26;5.90;99.90
70269;DHT22;58514;48.398;-4.274;2023-02-23T08:53:51;6.10;99.90
70269;DHT22;58514;48.398;-4.274;2023-02-23T08:56:17;6.40;99.90
70269;DHT22;58514;48.398;-4.274;2023-02-23T08:58:42;6.70;99.90
70269;DHT22;58514;48.398;-4.274;2023-02-23T09:01:14;7.20;99.90
70269;DHT22;58514;48.398;-4.274;2023-02-23T09:03:41;7.70;99.90
70269;DHT22;58514;48.398;-4.274;2023-02-23T09:06:09;8.20;99.90
70269;DHT22;58514;48.398;-4.274;2023-02-23T09:08:35;8.80;99.90
70269;DHT22;58514;48.398;-4.274;2023-02-23T09:11:01;9.30;99.90
70269;DHT22;58514;48.398;-4.274;2023-02-23T09:13:26;9.60;99.90
70269;DHT22;58514;48.398;-4.274;2023-02-23T09:15:52;9.90;99.90
70269;DHT22;58514;48.398;-4.274;2023-02-23T09:18:19;9.90;99.90
70269;DHT22;58514;48.398;-4.274;2023-02-23T09:20:44;10.00;99.90
70269;DHT22;58514;48.398;-4.274;2023-02-23T09:23:10;10.00;99.90
70269;DHT22;58514;48.398;-4.274;2023-02-23T09:25:39;10.00;99.90
70269;DHT22;58514;48.398;-4.274;2023-02-23T09:28:08;10.10;99.90
70269;DHT22;58514;48.398;-4.274;2023-02-23T09:30:36;10.20;99.90
70269;DHT22;58514;48.398;-4.274;2023-02-23T09:33:02;10.20;99.90
70269;DHT22;58514;48.398;-4.274;2023-02-23T09:35:28;10.20;99.90
70269;DHT22;58514;48.398;-4.274;2023-02-23T09:37:54;10.20;99.90
70269;DHT22;58514;48.398;-4.274;2023-02-23T09:40:24;10.20;99.90
70269;DHT22;58514;48.398;-4.274;2023-02-23T09:48:05;10.20;99.90
70269;DHT22;58514;48.398;-4.274;2023-02-23T09:50:32;10.20;99.90
70269;DHT22;58514;48.398;-4.274;2023-02-23T09:53:00;10.30;99.90
70269;DHT22;58514;48.398;-4.274;2023-02-23T09:55:27;10.30;99.90
70269;DHT22;58514;48.398;-4.274;2023-02-23T09:57:53;10.30;99.90
70269;DHT22;58514;48.398;-4.274;2023-02-23T10:00:21;10.40;99.90
70269;DHT22;58514;48.398;-4.274;2023-02-23T10:05:23;10.50;99.90
70269;DHT22;58514;48.398;-4.274;2023-02-23T10:07:54;10.70;99.90
70269;DHT22;58514;48.398;-4.274;2023-02-23T10:10:41;10.80;99.90
70269;DHT22;58514;48.398;-4.274;2023-02-23T10:13:14;11.10;99.90
70269;DHT22;58514;48.398;-4.274;2023-02-23T10:15:54;11.40;99.90
70269;DHT22;58514;48.398;-4.274;2023-02-23T10:20:58;12.10;99.90
70269;DHT22;58514;48.398;-4.274;2023-02-23T10:23:33;12.50;99.90
70269;DHT22;58514;48.398;-4.274;2023-02-23T10:26:01;13.10;99.90
70269;DHT22;58514;48.398;-4.274;2023-02-23T10:28:29;13.60;99.90
70269;DHT22;58514;48.398;-4.274;2023-02-23T10:30:57;14.00;99.90
70269;DHT22;58514;48.398;-4.274;2023-02-23T10:33:34;14.40;99.90
70269;DHT22;58514;48.398;-4.274;2023-02-23T10:36:08;14.80;99.90
70269;DHT22;58514;48.398;-4.274;2023-02-23T10:38:36;15.00;99.90
70269;DHT22;58514;48.398;-4.274;2023-02-23T10:41:02;15.20;99.90
70269;DHT22;58514;48.398;-4.274;2023-02-23T10:43:28;15.30;99.90
70269;DHT22;58514;48.398;-4.274;2023-02-23T10:45:54;15.50;99.90
70269;DHT22;58514;48.398;-4.274;2023-02-23T10:50:46;15.50;99.90
70269;DHT22;58514;48.398;-4.274;2023-02-23T10:53:23;15.70;99.90
70269;DHT22;58514;48.398;-4.274;2023-02-23T10:56:06;15.70;99.90
70269;DHT22;58514;48.398;-4.274;2023-02-23T11:01:11;16.00;99.90
70269;DHT22;58514;48.398;-4.274;2023-02-23T11:03:38;16.10;99.90
70269;DHT22;58514;48.398;-4.274;2023-02-23T11:06:05;15.90;99.90
70269;DHT22;58514;48.398;-4.274;2023-02-23T11:11:00;15.60;99.90
70269;DHT22;58514;48.398;-4.274;2023-02-23T11:13:28;15.60;99.90
70269;DHT22;58514;48.398;-4.274;2023-02-23T11:15:57;15.60;99.90
70269;DHT22;58514;48.398;-4.274;2023-02-23T11:18:23;15.70;99.90
70269;DHT22;58514;48.398;-4.274;2023-02-23T11:20:49;15.60;99.90
70269;DHT22;58514;48.398;-4.274;2023-02-23T11:25:41;15.00;99.90
70269;DHT22;58514;48.398;-4.274;2023-02-23T11:28:14;14.80;99.90
70269;DHT22;58514;48.398;-4.274;2023-02-23T11:30:42;14.40;99.90
70269;DHT22;58514;48.398;-4.274;2023-02-23T11:33:12;14.30;99.90
70269;DHT22;58514;48.398;-4.274;2023-02-23T11:35:39;14.40;99.90
70269;DHT22;58514;48.398;-4.274;2023-02-23T11:38:24;14.80;99.90
70269;DHT22;58514;48.398;-4.274;2023-02-23T11:41:01;15.30;99.90
70269;DHT22;58514;48.398;-4.274;2023-02-23T11:43:27;16.00;99.90
70269;DHT22;58514;48.398;-4.274;2023-02-23T11:45:53;16.20;99.90
70269;DHT22;58514;48.398;-4.274;2023-02-23T11:48:21;16.30;99.90
70269;DHT22;58514;48.398;-4.274;2023-02-23T11:50:49;16.40;99.90
70269;DHT22;58514;48.398;-4.274;2023-02-23T11:53:17;16.40;99.90
70269;DHT22;58514;48.398;-4.274;2023-02-23T11:55:47;16.40;99.90
70269;DHT22;58514;48.398;-4.274;2023-02-23T12:01:04;15.90;99.90
70269;DHT22;58514;48.398;-4.274;2023-02-23T12:03:36;15.50;99.90
70269;DHT22;58514;48.398;-4.274;2023-02-23T12:06:02;14.90;99.90
70269;DHT22;58514;48.398;-4.274;2023-02-23T12:10:56;13.90;99.90
70269;DHT22;58514;48.398;-4.274;2023-02-23T12:13:30;13.40;99.90
70269;DHT22;58514;48.398;-4.274;2023-02-23T12:21:17;12.20;99.90
70269;DHT22;58514;48.398;-4.274;2023-02-23T12:23:45;12.00;99.90
70269;DHT22;58514;48.398;-4.274;2023-02-23T12:26:17;11.90;99.90
70269;DHT22;58514;48.398;-4.274;2023-02-23T12:28:47;11.90;99.90
70269;DHT22;58514;48.398;-4.274;2023-02-23T12:34:01;12.80;99.90
70269;DHT22;58514;48.398;-4.274;2023-02-23T12:36:31;13.40;99.90
70269;DHT22;58514;48.398;-4.274;2023-02-23T12:39:00;13.60;99.90
70269;DHT22;58514;48.398;-4.274;2023-02-23T12:41:39;13.60;99.90
70269;DHT22;58514;48.398;-4.274;2023-02-23T12:46:38;13.30;99.90
70269;DHT22;58514;48.398;-4.274;2023-02-23T12:49:29;13.10;99.90
70269;DHT22;58514;48.398;-4.274;2023-02-23T12:51:57;12.90;99.90
70269;DHT22;58514;48.398;-4.274;2023-02-23T12:54:24;12.70;99.90
70269;DHT22;58514;48.398;-4.274;2023-02-23T13:01:56;12.50;99.90
70269;DHT22;58514;48.398;-4.274;2023-02-23T13:04:28;12.50;99.90
70269;DHT22;58514;48.398;-4.274;2023-02-23T13:17:25;11.90;99.90
70269;DHT22;58514;48.398;-4.274;2023-02-23T13:19:56;11.70;99.90
70269;DHT22;58514;48.398;-4.274;2023-02-23T13:27:51;11.00;99.90
70269;DHT22;58514;48.398;-4.274;2023-02-23T13:30:19;10.90;99.90
70269;DHT22;58514;48.398;-4.274;2023-02-23T13:32:47;10.80;99.90
70269;DHT22;58514;48.398;-4.274;2023-02-23T13:35:16;10.70;99.90
70269;DHT22;58514;48.398;-4.274;2023-02-23T13:40:22;10.50;99.90
70269;DHT22;58514;48.398;-4.274;2023-02-23T13:45:49;10.50;99.90
70269;DHT22;58514;48.398;-4.274;2023-02-23T13:48:21;10.70;99.90
70269;DHT22;58514;48.398;-4.274;2023-02-23T13:54:06;11.10;99.90
70269;DHT22;58514;48.398;-4.274;2023-02-23T13:58:37;10.90;99.90
70269;DHT22;58514;48.398;-4.274;2023-02-23T14:01:10;10.70;99.90
70269;DHT22;58514;48.398;-4.274;2023-02-23T14:03:40;10.40;99.90
70269;DHT22;58514;48.398;-4.274;2023-02-23T14:06:06;10.30;99.90
70269;DHT22;58514;48.398;-4.274;2023-02-23T14:10:58;10.10;99.90
70269;DHT22;58514;48.398;-4.274;2023-02-23T14:13:29;10.00;99.90
70269;DHT22;58514;48.398;-4.274;2023-02-23T14:16:09;10.00;99.90
70269;DHT22;58514;48.398;-4.274;2023-02-23T14:18:35;10.00;99.90
70269;DHT22;58514;48.398;-4.274;2023-02-23T14:28:38;10.10;99.90
70269;DHT22;58514;48.398;-4.274;2023-02-23T14:38:46;10.00;99.90
70269;DHT22;58514;48.398;-4.274;2023-02-23T14:41:19;10.10;99.90
70269;DHT22;58514;48.398;-4.274;2023-02-23T14:43:45;10.20;99.90
70269;DHT22;58514;48.398;-4.274;2023-02-23T14:46:15;10.20;99.90
70269;DHT22;58514;48.398;-4.274;2023-02-23T14:48:42;10.20;99.90
70269;DHT22;58514;48.398;-4.274;2023-02-23T14:51:51;10.20;99.90
70269;DHT22;58514;48.398;-4.274;2023-02-23T14:53:58;10.10;99.90
70269;DHT22;58514;48.398;-4.274;2023-02-23T14:56:24;10.00;99.90
70269;DHT22;58514;48.398;-4.274;2023-02-23T14:58:50;9.80;99.90
70269;DHT22;58514;48.398;-4.274;2023-02-23T15:01:36;9.70;99.90
70269;DHT22;58514;48.398;-4.274;2023-02-23T15:04:06;9.70;99.90
70269;DHT22;58514;48.398;-4.274;2023-02-23T15:06:31;9.80;99.90
70269;DHT22;58514;48.398;-4.274;2023-02-23T15:08:57;9.90;99.90
70269;DHT22;58514;48.398;-4.274;2023-02-23T15:11:22;10.00;99.90
70269;DHT22;58514;48.398;-4.274;2023-02-23T15:13:48;10.10;99.90
70269;DHT22;58514;48.398;-4.274;2023-02-23T15:16:17;10.10;99.90
70269;DHT22;58514;48.398;-4.274;2023-02-23T15:18:47;10.20;99.90
70269;DHT22;58514;48.398;-4.274;2023-02-23T15:21:17;10.20;99.90
70269;DHT22;58514;48.398;-4.274;2023-02-23T15:23:44;10.30;99.90
70269;DHT22;58514;48.398;-4.274;2023-02-23T15:28:41;10.20;99.90
70269;DHT22;58514;48.398;-4.274;2023-02-23T15:31:09;10.10;99.90
70269;DHT22;58514;48.398;-4.274;2023-02-23T15:33:36;10.10;99.90
70269;DHT22;58514;48.398;-4.274;2023-02-23T15:36:09;10.10;99.90
70269;DHT22;58514;48.398;-4.274;2023-02-23T15:38:48;10.10;99.90
70269;DHT22;58514;48.398;-4.274;2023-02-23T15:43:43;10.00;99.90
70269;DHT22;58514;48.398;-4.274;2023-02-23T15:46:11;10.00;99.90
70269;DHT22;58514;48.398;-4.274;2023-02-23T15:48:44;10.00;99.90
70269;DHT22;58514;48.398;-4.274;2023-02-23T15:53:47;9.80;99.90
70269;DHT22;58514;48.398;-4.274;2023-02-23T15:56:21;9.80;99.90
70269;DHT22;58514;48.398;-4.274;2023-02-23T15:58:48;9.60;99.90
70269;DHT22;58514;48.398;-4.274;2023-02-23T16:01:18;9.50;99.90
70269;DHT22;58514;48.398;-4.274;2023-02-23T16:06:33;9.30;99.90
70269;DHT22;58514;48.398;-4.274;2023-02-23T16:09:24;9.20;99.90
70269;DHT22;58514;48.398;-4.274;2023-02-23T16:11:51;9.20;99.90
70269;DHT22;58514;48.398;-4.274;2023-02-23T16:14:18;9.20;99.90
70269;DHT22;58514;48.398;-4.274;2023-02-23T16:16:48;9.20;99.90
70269;DHT22;58514;48.398;-4.274;2023-02-23T16:19:15;9.20;99.90
70269;DHT22;58514;48.398;-4.274;2023-02-23T16:21:42;9.20;99.90
70269;DHT22;58514;48.398;-4.274;2023-02-23T16:24:13;9.20;99.90
70269;DHT22;58514;48.398;-4.274;2023-02-23T16:26:47;9.10;99.90
70269;DHT22;58514;48.398;-4.274;2023-02-23T16:29:18;9.10;99.90
70269;DHT22;58514;48.398;-4.274;2023-02-23T16:31:46;9.10;99.90
70269;DHT22;58514;48.398;-4.274;2023-02-23T16:34:20;9.10;99.90
70269;DHT22;58514;48.398;-4.274;2023-02-23T16:36:48;9.10;99.90
70269;DHT22;58514;48.398;-4.274;2023-02-23T16:39:14;9.10;99.90
70269;DHT22;58514;48.398;-4.274;2023-02-23T16:41:42;9.00;99.90
70269;DHT22;58514;48.398;-4.274;2023-02-23T16:44:16;9.00;99.90
70269;DHT22;58514;48.398;-4.274;2023-02-23T16:49:28;8.90;99.90
70269;DHT22;58514;48.398;-4.274;2023-02-23T16:51:54;9.00;99.90
70269;DHT22;58514;48.398;-4.274;2023-02-23T16:54:20;8.90;99.90
70269;DHT22;58514;48.398;-4.274;2023-02-23T16:56:46;8.90;99.90
70269;DHT22;58514;48.398;-4.274;2023-02-23T16:59:13;8.90;99.90
70269;DHT22;58514;48.398;-4.274;2023-02-23T17:01:39;8.90;99.90
70269;DHT22;58514;48.398;-4.274;2023-02-23T17:04:09;8.90;99.90
70269;DHT22;58514;48.398;-4.274;2023-02-23T17:06:36;8.90;99.90
70269;DHT22;58514;48.398;-4.274;2023-02-23T17:09:02;8.80;99.90
70269;DHT22;58514;48.398;-4.274;2023-02-23T17:11:28;8.80;99.90
70269;DHT22;58514;48.398;-4.274;2023-02-23T17:13:53;8.70;99.90
70269;DHT22;58514;48.398;-4.274;2023-02-23T17:16:19;8.60;99.90
70269;DHT22;58514;48.398;-4.274;2023-02-23T17:18:44;8.60;99.90
70269;DHT22;58514;48.398;-4.274;2023-02-23T17:21:11;8.60;99.90
70269;DHT22;58514;48.398;-4.274;2023-02-23T17:23:37;8.50;99.90
70269;DHT22;58514;48.398;-4.274;2023-02-23T17:26:10;8.50;99.90
70269;DHT22;58514;48.398;-4.274;2023-02-23T17:28:36;8.50;99.90
70269;DHT22;58514;48.398;-4.274;2023-02-23T17:31:02;8.50;99.90
70269;DHT22;58514;48.398;-4.274;2023-02-23T17:33:28;8.50;99.90
70269;DHT22;58514;48.398;-4.274;2023-02-23T17:36:04;8.40;99.90
70269;DHT22;58514;48.398;-4.274;2023-02-23T17:38:30;8.40;99.90
70269;DHT22;58514;48.398;-4.274;2023-02-23T17:41:00;8.40;99.90
70269;DHT22;58514;48.398;-4.274;2023-02-23T17:43:25;8.40;99.90
70269;DHT22;58514;48.398;-4.274;2023-02-23T17:45:51;8.40;99.90
70269;DHT22;58514;48.398;-4.274;2023-02-23T17:48:18;8.40;99.90
70269;DHT22;58514;48.398;-4.274;2023-02-23T17:50:44;8.30;99.90
70269;DHT22;58514;48.398;-4.274;2023-02-23T17:53:10;8.30;99.90
70269;DHT22;58514;48.398;-4.274;2023-02-23T17:55:35;8.30;99.90
70269;DHT22;58514;48.398;-4.274;2023-02-23T17:58:01;8.30;99.90
70269;DHT22;58514;48.398;-4.274;2023-02-23T18:00:26;8.30;99.90
70269;DHT22;58514;48.398;-4.274;2023-02-23T18:02:53;8.30;99.90
70269;DHT22;58514;48.398;-4.274;2023-02-23T18:05:18;8.30;99.90
70269;DHT22;58514;48.398;-4.274;2023-02-23T18:07:44;8.30;99.90
70269;DHT22;58514;48.398;-4.274;2023-02-23T18:10:10;8.30;99.90
70269;DHT22;58514;48.398;-4.274;2023-02-23T18:12:39;8.30;99.90